createdAt,value
2019-06-27T15:59:46.024Z,25.50
2019-06-27T16:00:19.735Z,25.40
2019-06-27T16:00:52.401Z,25.30
2019-06-27T16:01:25.151Z,25.40
2019-06-27T16:01:57.870Z,25.40
2019-06-27T16:02:30.843Z,25.40
2019-06-27T16:03:04.240Z,25.40
2019-06-27T16:03:37.423Z,25.40
2019-06-27T16:04:10.343Z,25.40
2019-06-27T16:04:42.998Z,25.40
2019-06-27T16:05:15.968Z,25.50
2019-06-27T16:05:48.608Z,25.50
2019-06-27T16:06:21.581Z,25.50
2019-06-27T16:06:54.212Z,25.50
2019-06-27T16:07:26.828Z,25.50
2019-06-27T16:07:59.758Z,25.50
2019-06-27T16:08:32.382Z,25.60
2019-06-27T16:09:05.923Z,25.60
2019-06-27T16:11:14.328Z,25.60
2019-06-27T16:11:47.062Z,25.60
2019-06-27T16:12:20.113Z,25.60
2019-06-27T16:12:53.503Z,25.60
2019-06-27T16:13:26.450Z,25.60
2019-06-27T16:13:59.091Z,25.70
2019-06-27T16:14:31.767Z,25.60
2019-06-27T16:15:05.511Z,25.70
2019-06-27T16:15:38.510Z,25.70
2019-06-27T16:16:11.201Z,25.70
2019-06-27T16:16:43.914Z,25.70
2019-06-27T16:17:16.580Z,25.70
2019-06-27T16:17:49.669Z,25.70
2019-06-27T16:18:22.665Z,25.70
2019-06-27T16:18:55.500Z,25.70
2019-06-27T16:19:28.207Z,25.70
2019-06-27T16:20:01.255Z,25.70
2019-06-27T16:20:33.931Z,25.70
2019-06-27T16:21:06.588Z,25.70
2019-06-27T16:21:39.245Z,25.70
2019-06-27T16:22:11.939Z,25.60
2019-06-27T16:22:44.608Z,25.60
2019-06-27T16:23:17.279Z,25.70
2019-06-27T16:23:50.684Z,25.70
2019-06-27T16:24:23.335Z,25.70
2019-06-27T16:24:56.300Z,25.80
2019-06-27T16:25:28.977Z,25.80
2019-06-27T16:26:02.093Z,25.80
2019-06-27T16:26:35.080Z,25.80
2019-06-27T16:27:08.370Z,25.80
2019-06-27T16:27:41.087Z,25.90
2019-06-27T16:28:14.035Z,25.90
2019-06-27T16:28:46.698Z,25.90
2019-06-27T16:29:19.774Z,25.90
2019-06-27T16:29:52.871Z,25.90
2019-06-27T16:30:25.657Z,25.90
2019-06-27T16:30:58.287Z,25.90
2019-06-27T16:31:30.967Z,25.90
2019-06-27T16:32:03.607Z,25.90
2019-06-27T16:32:36.304Z,25.90
2019-06-27T16:33:09.010Z,25.80
2019-06-27T16:33:42.196Z,25.70
2019-06-27T16:34:14.855Z,25.80
2019-06-27T16:34:47.537Z,25.80
2019-06-27T16:35:20.589Z,25.70
2019-06-27T16:35:54.202Z,25.70
2019-06-27T16:36:27.329Z,25.70
2019-06-27T16:36:59.961Z,25.70
2019-06-27T16:37:33.162Z,25.70
2019-06-27T16:38:05.994Z,25.60
2019-06-27T16:38:38.688Z,25.60
2019-06-27T16:39:11.380Z,25.60
2019-06-27T16:39:44.044Z,25.50
2019-06-27T16:40:17.238Z,25.50
2019-06-27T16:40:50.513Z,25.50
2019-06-27T16:41:23.185Z,25.60
2019-06-27T16:41:56.165Z,25.60
2019-06-27T16:42:29.106Z,25.60
2019-06-27T16:43:01.780Z,25.60
2019-06-27T16:43:34.469Z,25.50
2019-06-27T16:44:07.549Z,25.50
2019-06-27T16:44:40.213Z,25.50
2019-06-27T16:45:13.507Z,25.40
2019-06-27T16:45:46.149Z,25.50
2019-06-27T16:46:19.211Z,25.50
2019-06-27T16:46:51.873Z,25.50
2019-06-27T16:47:24.932Z,25.50
2019-06-27T16:47:57.760Z,25.50
2019-06-27T16:48:30.451Z,25.60
2019-06-27T16:49:03.134Z,25.60
2019-06-27T16:49:35.856Z,25.60
2019-06-27T16:50:09.852Z,25.60
2019-06-27T16:50:42.510Z,25.50
2019-06-27T16:51:15.187Z,25.50
2019-06-27T16:51:47.823Z,25.40
2019-06-27T16:52:20.491Z,25.40
2019-06-27T16:52:53.487Z,25.30
2019-06-27T16:53:26.279Z,25.30
2019-06-27T16:53:59.352Z,25.30
2019-06-27T16:54:32.800Z,25.30
2019-06-27T16:55:05.874Z,25.30
2019-06-27T16:55:38.699Z,25.30
2019-06-27T16:56:11.358Z,25.30
2019-06-27T16:56:44.504Z,25.30
2019-06-27T16:57:17.192Z,25.30
2019-06-27T16:57:50.034Z,25.30
2019-06-27T16:58:22.692Z,25.20
2019-06-27T16:58:55.370Z,25.20
2019-06-27T16:59:28.423Z,25.20
2019-06-27T17:00:01.078Z,25.20
2019-06-27T17:00:33.823Z,25.30
2019-06-27T17:01:06.484Z,25.30
2019-06-27T17:01:39.860Z,25.20
2019-06-27T17:02:12.996Z,25.20
2019-06-27T17:02:45.631Z,25.20
2019-06-27T17:03:18.890Z,25.20
2019-06-27T17:03:51.556Z,25.20
2019-06-27T17:04:24.199Z,25.20
2019-06-27T17:04:57.228Z,25.10
2019-06-27T17:05:30.225Z,25.20
2019-06-27T17:06:03.238Z,25.10
2019-06-27T17:06:42.023Z,25.10
2019-06-27T17:07:10.494Z,25.20
2019-06-27T17:07:43.170Z,25.10
2019-06-27T17:08:16.433Z,25.10
2019-06-27T17:08:49.415Z,25.10
2019-06-27T17:09:22.096Z,25.20
2019-06-27T17:09:55.290Z,25.20
2019-06-27T17:10:28.005Z,25.10
2019-06-27T17:11:01.093Z,25.00
2019-06-27T17:11:34.557Z,25.00
2019-06-27T17:12:07.210Z,25.10
2019-06-27T17:12:39.874Z,25.10
2019-06-27T17:13:12.541Z,25.10
2019-06-27T17:13:46.661Z,25.10
2019-06-27T17:14:19.640Z,25.00
2019-06-27T17:14:52.310Z,25.00
2019-06-27T17:15:25.249Z,25.10
2019-06-27T17:15:58.290Z,25.10
2019-06-27T17:16:30.948Z,25.00
2019-06-27T17:17:03.619Z,25.00
2019-06-27T17:17:36.301Z,24.90
2019-06-27T17:18:08.967Z,24.90
2019-06-27T17:18:41.669Z,24.90
2019-06-27T17:19:14.458Z,24.80
2019-06-27T17:19:47.145Z,24.80
2019-06-27T17:20:20.012Z,24.80
2019-06-27T17:20:53.067Z,24.90
2019-06-27T17:21:25.706Z,24.90
2019-06-27T17:21:58.666Z,24.80
2019-06-27T17:22:31.393Z,24.80
2019-06-27T17:23:05.525Z,24.70
2019-06-27T17:23:38.671Z,24.70
2019-06-27T17:24:11.645Z,24.70
2019-06-27T17:24:44.708Z,24.60
2019-06-27T17:25:17.412Z,24.70
2019-06-27T17:25:50.580Z,24.70
2019-06-27T17:26:23.787Z,24.60
2019-06-27T17:26:56.472Z,24.60
2019-06-27T17:27:29.157Z,24.60
2019-06-27T17:28:01.845Z,24.60
2019-06-27T17:28:35.443Z,24.50
2019-06-27T17:29:08.191Z,24.50
2019-06-27T17:29:40.993Z,24.50
2019-06-27T17:30:15.183Z,24.50
2019-06-27T17:30:47.852Z,24.50
2019-06-27T17:31:20.843Z,24.60
2019-06-27T17:31:53.506Z,24.50
2019-06-27T17:32:26.173Z,24.50
2019-06-27T17:32:59.127Z,24.50
2019-06-27T17:33:32.130Z,24.50
2019-06-27T17:34:04.783Z,24.50
2019-06-27T17:34:37.453Z,24.50
2019-06-27T17:35:10.914Z,24.60
2019-06-27T17:35:43.591Z,24.60
2019-06-27T17:36:16.581Z,24.60
2019-06-27T17:36:57.338Z,24.50
2019-06-27T17:37:24.076Z,24.60
2019-06-27T17:37:56.755Z,24.50
2019-06-27T17:38:29.670Z,24.60
2019-06-27T17:39:02.673Z,24.60
2019-06-27T17:39:35.421Z,24.60
2019-06-27T17:40:10.093Z,24.60
2019-06-27T17:40:43.077Z,24.60
2019-06-27T17:41:16.532Z,24.60
2019-06-27T17:41:49.179Z,24.50
2019-06-27T17:42:22.223Z,24.50
2019-06-27T17:42:55.203Z,24.50
2019-06-27T17:43:27.860Z,24.50
2019-06-27T17:44:00.525Z,24.60
2019-06-27T17:44:33.652Z,24.60
2019-06-27T17:45:06.649Z,24.50
2019-06-27T17:45:39.343Z,24.50
2019-06-27T17:46:12.005Z,24.50
2019-06-27T17:46:46.559Z,24.50
2019-06-27T17:47:19.130Z,24.40
2019-06-27T17:47:51.854Z,24.40
2019-06-27T17:48:24.474Z,24.40
2019-06-27T17:48:57.144Z,24.40
2019-06-27T17:49:30.120Z,24.50
2019-06-27T17:50:03.630Z,24.40
2019-06-27T17:50:36.446Z,24.40
2019-06-27T17:51:09.115Z,24.40
2019-06-27T17:51:42.413Z,24.40
2019-06-27T17:52:15.111Z,24.40
2019-06-27T17:52:48.467Z,24.40
2019-06-27T17:53:21.429Z,24.40
2019-06-27T17:53:54.066Z,24.40
2019-06-27T17:54:26.743Z,24.40
2019-06-27T17:54:59.739Z,24.40
2019-06-27T17:55:32.822Z,24.40
2019-06-27T17:56:05.872Z,24.30
2019-06-27T17:56:38.547Z,24.30
2019-06-27T17:57:11.206Z,24.30
2019-06-27T17:57:47.052Z,24.20
2019-06-27T17:58:18.716Z,24.20
2019-06-27T17:58:51.335Z,24.20
2019-06-27T17:59:23.997Z,24.10
2019-06-27T17:59:56.669Z,24.10
2019-06-27T18:00:29.681Z,24.10
2019-06-27T18:01:02.449Z,24.10
2019-06-27T18:01:35.211Z,24.10
2019-06-27T18:02:08.179Z,24.10
2019-06-27T18:02:40.840Z,24.10
2019-06-27T18:03:13.553Z,24.10
2019-06-27T18:03:46.215Z,24.10
2019-06-27T18:04:18.877Z,24.10
2019-06-27T18:04:51.570Z,24.10
2019-06-27T18:05:24.469Z,24.10
2019-06-27T18:05:57.186Z,24.10
2019-06-27T18:06:30.138Z,24.00
2019-06-27T18:07:13.406Z,24.10
2019-06-27T18:07:37.285Z,24.00
2019-06-27T18:08:10.258Z,24.10
2019-06-27T18:08:43.221Z,24.00
2019-06-27T18:09:15.988Z,24.00
2019-06-27T18:09:48.666Z,24.00
2019-06-27T18:10:21.410Z,24.00
2019-06-27T18:10:54.429Z,23.90
2019-06-27T18:11:27.093Z,23.90
2019-06-27T18:11:59.837Z,23.90
2019-06-27T18:12:32.759Z,23.90
2019-06-27T18:13:05.753Z,23.80
2019-06-27T18:13:38.442Z,23.80
2019-06-27T18:14:11.111Z,23.90
2019-06-27T18:14:43.803Z,23.80
2019-06-27T18:15:16.780Z,23.80
2019-06-27T18:15:49.887Z,23.90
2019-06-27T18:16:22.556Z,23.90
2019-06-27T18:16:55.246Z,23.90
2019-06-27T18:17:33.385Z,23.80
2019-06-27T18:18:02.899Z,23.80
2019-06-27T18:18:35.576Z,23.80
2019-06-27T18:19:08.242Z,23.80
2019-06-27T18:19:40.942Z,23.80
2019-06-27T18:20:13.608Z,23.70
2019-06-27T18:20:46.373Z,23.80
2019-06-27T18:21:19.310Z,23.70
2019-06-27T18:21:52.334Z,23.70
2019-06-27T18:22:25.521Z,23.70
2019-06-27T18:22:58.626Z,23.70
2019-06-27T18:23:31.305Z,23.70
2019-06-27T18:24:03.984Z,23.70
2019-06-27T18:24:36.661Z,23.70
2019-06-27T18:25:09.621Z,23.70
2019-06-27T18:25:42.310Z,23.60
2019-06-27T18:26:15.314Z,23.60
2019-06-27T18:26:48.459Z,23.50
2019-06-27T18:27:21.177Z,23.50
2019-06-27T18:27:53.838Z,23.50
2019-06-27T18:28:26.520Z,23.50
2019-06-27T18:28:59.569Z,23.40
2019-06-27T18:29:32.258Z,23.30
2019-06-27T18:30:05.349Z,23.30
2019-06-27T18:30:38.011Z,23.30
2019-06-27T18:31:10.797Z,23.20
2019-06-27T18:31:43.819Z,23.30
2019-06-27T18:32:17.335Z,23.20
2019-06-27T18:32:50.112Z,23.20
2019-06-27T18:33:23.116Z,23.20
2019-06-27T18:33:55.911Z,23.20
2019-06-27T18:34:29.055Z,23.20
2019-06-27T18:35:02.160Z,23.20
2019-06-27T18:35:35.176Z,23.20
2019-06-27T18:36:08.087Z,23.10
2019-06-27T18:36:40.837Z,23.10
2019-06-27T18:37:25.776Z,23.00
2019-06-27T18:37:48.905Z,23.10
2019-06-27T18:38:21.551Z,23.10
2019-06-27T18:38:54.923Z,23.00
2019-06-27T18:39:28.417Z,23.00
2019-06-27T18:40:01.586Z,23.00
2019-06-27T18:40:34.254Z,23.00
2019-06-27T18:41:06.926Z,23.00
2019-06-27T18:41:40.331Z,23.00
2019-06-27T18:42:13.583Z,23.00
2019-06-27T18:42:47.781Z,23.00
2019-06-27T18:43:20.420Z,23.00
2019-06-27T18:43:53.488Z,22.90
2019-06-27T18:44:26.422Z,22.90
2019-06-27T18:44:59.728Z,22.90
2019-06-27T18:45:32.377Z,22.80
2019-06-27T18:46:05.045Z,22.80
2019-06-27T18:46:37.744Z,22.80
2019-06-27T18:47:10.944Z,22.70
2019-06-27T18:47:43.942Z,22.70
2019-06-27T18:48:16.646Z,22.70
2019-06-27T18:48:51.885Z,22.70
2019-06-27T18:49:23.762Z,22.70
2019-06-27T18:49:56.404Z,22.70
2019-06-27T18:50:29.093Z,22.60
2019-06-27T18:51:02.357Z,22.70
2019-06-27T18:51:35.125Z,22.60
2019-06-27T18:52:07.775Z,22.60
2019-06-27T18:52:41.174Z,22.60
2019-06-27T18:53:13.798Z,22.50
2019-06-27T18:53:46.858Z,22.50
2019-06-27T18:54:19.500Z,22.50
2019-06-27T18:54:52.168Z,22.50
2019-06-27T18:55:24.811Z,22.50
2019-06-27T18:55:57.559Z,22.50
2019-06-27T18:56:30.220Z,22.50
2019-06-27T18:57:03.145Z,22.50
2019-06-27T18:57:35.877Z,22.50
2019-06-27T18:58:08.810Z,22.50
2019-06-27T18:58:41.815Z,22.50
2019-06-27T18:59:15.457Z,22.50
2019-06-27T18:59:48.865Z,22.40
2019-06-27T19:00:22.622Z,22.50
2019-06-27T19:00:55.263Z,22.50
2019-06-27T19:01:27.932Z,22.40
2019-06-27T19:02:01.223Z,22.40
2019-06-27T19:02:33.922Z,22.40
2019-06-27T19:03:06.587Z,22.30
2019-06-27T19:03:39.360Z,22.30
2019-06-27T19:04:13.904Z,22.20
2019-06-27T19:04:46.817Z,22.20
2019-06-27T19:05:19.584Z,22.20
2019-06-27T19:05:52.324Z,22.20
2019-06-27T19:06:25.043Z,22.20
2019-06-27T19:06:57.804Z,22.10
2019-06-27T19:07:44.482Z,22.10
2019-06-27T19:08:05.340Z,22.10
2019-06-27T19:08:38.327Z,22.20
2019-06-27T19:09:11.059Z,22.10
2019-06-27T19:09:44.779Z,22.10
2019-06-27T19:10:17.658Z,22.00
2019-06-27T19:10:50.352Z,22.00
2019-06-27T19:11:23.310Z,22.00
2019-06-27T19:11:56.395Z,21.90
2019-06-27T19:12:29.868Z,21.90
2019-06-27T19:13:02.555Z,21.90
2019-06-27T19:13:36.854Z,21.80
2019-06-27T19:14:09.488Z,21.80
2019-06-27T19:14:43.584Z,21.70
2019-06-27T19:15:16.809Z,21.70
2019-06-27T19:15:50.142Z,21.70
2019-06-27T19:16:22.892Z,21.70
2019-06-27T19:16:55.654Z,21.70
2019-06-27T19:17:28.647Z,21.70
2019-06-27T19:18:01.389Z,21.70
2019-06-27T19:18:43.166Z,21.70
2019-06-27T19:19:19.169Z,21.70
2019-06-27T19:19:54.947Z,21.70
2019-06-27T19:20:47.238Z,21.60
2019-06-27T19:21:37.117Z,21.60
2019-06-27T19:22:29.762Z,21.60
2019-06-27T19:23:21.113Z,21.50
2019-06-27T19:23:59.880Z,21.50
2019-06-27T19:24:42.434Z,21.50
2019-06-27T19:25:19.689Z,21.40
2019-06-27T19:25:53.962Z,21.40
2019-06-27T19:26:26.603Z,21.40
2019-06-27T19:26:59.720Z,21.40
2019-06-27T19:27:33.236Z,21.40
2019-06-27T19:28:05.910Z,21.50
2019-06-27T19:28:38.772Z,21.40
2019-06-27T19:29:11.781Z,21.40
2019-06-27T19:29:44.848Z,21.30
2019-06-27T19:30:18.222Z,21.30
2019-06-27T19:30:51.839Z,21.30
2019-06-27T19:31:24.545Z,21.30
2019-06-27T19:31:57.193Z,21.30
2019-06-27T19:32:29.877Z,21.20
2019-06-27T19:33:02.552Z,21.20
2019-06-27T19:33:35.260Z,21.30
2019-06-27T19:34:07.989Z,21.30
2019-06-27T19:34:41.016Z,21.30
2019-06-27T19:35:14.005Z,21.30
2019-06-27T19:35:47.231Z,21.30
2019-06-27T19:36:20.621Z,21.30
2019-06-27T19:36:53.273Z,21.40
2019-06-27T19:37:27.073Z,21.30
2019-06-27T19:38:02.394Z,21.30
2019-06-27T19:38:34.527Z,21.30
2019-06-27T19:39:07.586Z,21.30
2019-06-27T19:39:40.631Z,21.30
2019-06-27T19:40:14.194Z,21.30
2019-06-27T19:40:46.880Z,21.20
2019-06-27T19:41:19.835Z,21.20
2019-06-27T19:41:52.492Z,21.20
2019-06-27T19:42:25.874Z,21.10
2019-06-27T19:42:59.029Z,21.00
2019-06-27T19:43:32.025Z,21.00
2019-06-27T19:44:05.042Z,20.90
2019-06-27T19:44:37.727Z,20.90
2019-06-27T19:45:10.404Z,20.90
2019-06-27T19:45:43.410Z,20.90
2019-06-27T19:46:16.484Z,20.90
2019-06-27T19:46:49.137Z,20.90
2019-06-27T19:47:21.771Z,20.90
2019-06-27T19:47:54.414Z,20.90
2019-06-27T19:48:27.086Z,20.90
2019-06-27T19:48:59.721Z,20.90
2019-06-27T19:49:32.746Z,20.80
2019-06-27T19:50:05.410Z,20.80
2019-06-27T19:50:38.087Z,20.80
2019-06-27T19:51:10.712Z,20.90
2019-06-27T19:51:43.500Z,20.80
2019-06-27T19:52:22.409Z,20.80
2019-06-27T19:52:55.039Z,20.80
2019-06-27T19:53:27.686Z,20.80
2019-06-27T19:54:00.319Z,20.80
2019-06-27T19:54:32.979Z,20.80
2019-06-27T19:55:06.072Z,20.80
2019-06-27T19:55:38.716Z,20.80
2019-06-27T19:56:11.406Z,20.80
2019-06-27T19:56:44.075Z,20.80
2019-06-27T19:57:16.718Z,20.80
2019-06-27T19:57:49.359Z,20.80
2019-06-27T19:58:22.007Z,20.80
2019-06-27T19:58:54.961Z,20.80
2019-06-27T19:59:27.928Z,20.80
2019-06-27T20:00:00.587Z,20.80
2019-06-27T20:00:33.278Z,20.80
2019-06-27T20:01:05.945Z,20.70
2019-06-27T20:01:38.991Z,20.70
2019-06-27T20:02:11.651Z,20.70
2019-06-27T20:02:44.291Z,20.70
2019-06-27T20:03:16.993Z,20.70
2019-06-27T20:03:49.659Z,20.60
2019-06-27T20:04:22.898Z,20.60
2019-06-27T20:04:55.831Z,20.60
2019-06-27T20:05:28.489Z,20.60
2019-06-27T20:06:01.143Z,20.60
2019-06-27T20:06:33.784Z,20.60
2019-06-27T20:07:06.641Z,20.60
2019-06-27T20:07:39.656Z,20.60
2019-06-27T20:08:18.999Z,20.50
2019-06-27T20:08:47.078Z,20.50
2019-06-27T20:09:20.113Z,20.60
2019-06-27T20:09:53.039Z,20.50
2019-06-27T20:10:26.095Z,20.50
2019-06-27T20:10:58.897Z,20.40
2019-06-27T20:11:31.517Z,20.50
2019-06-27T20:12:04.145Z,20.50
2019-06-27T20:12:37.643Z,20.50
2019-06-27T20:13:10.279Z,20.50
2019-06-27T20:13:42.920Z,20.50
2019-06-27T20:14:15.530Z,20.50
2019-06-27T20:14:48.207Z,20.50
2019-06-27T20:15:22.685Z,20.40
2019-06-27T20:15:55.299Z,20.40
2019-06-27T20:16:27.969Z,20.30
2019-06-27T20:17:01.090Z,20.20
2019-06-27T20:17:33.724Z,20.20
2019-06-27T20:18:06.402Z,20.10
2019-06-27T20:18:39.343Z,20.10
2019-06-27T20:19:11.962Z,20.10
2019-06-27T20:19:44.625Z,20.10
2019-06-27T20:20:17.568Z,20.00
2019-06-27T20:20:51.037Z,20.00
2019-06-27T20:21:23.657Z,20.00
2019-06-27T20:21:56.354Z,19.90
2019-06-27T20:22:28.992Z,19.90
2019-06-27T20:23:01.634Z,19.90
2019-06-27T20:23:34.320Z,19.80
2019-06-27T20:24:06.995Z,19.80
2019-06-27T20:24:39.662Z,19.70
2019-06-27T20:25:12.413Z,19.80
2019-06-27T20:25:45.343Z,19.70
2019-06-27T20:26:17.976Z,19.70
2019-06-27T20:26:50.964Z,19.70
2019-06-27T20:27:23.918Z,19.70
2019-06-27T20:27:56.563Z,19.70
2019-06-27T20:28:29.479Z,19.70
2019-06-27T20:29:02.797Z,19.60
2019-06-27T20:29:36.135Z,19.70
2019-06-27T20:30:09.101Z,19.60
2019-06-27T20:30:41.730Z,19.60
2019-06-27T20:31:14.735Z,19.50
2019-06-27T20:31:47.387Z,19.50
2019-06-27T20:32:20.428Z,19.60
2019-06-27T20:32:53.103Z,19.60
2019-06-27T20:33:26.120Z,19.50
2019-06-27T20:33:58.770Z,19.40
2019-06-27T20:34:31.610Z,19.40
2019-06-27T20:35:04.688Z,19.40
2019-06-27T20:35:37.340Z,19.40
2019-06-27T20:36:09.973Z,19.40
2019-06-27T20:36:42.649Z,19.40
2019-06-27T20:37:15.258Z,19.40
2019-06-27T20:37:48.008Z,19.40
2019-06-27T20:38:33.897Z,19.40
2019-06-27T20:38:55.066Z,19.40
2019-06-27T20:39:27.987Z,19.40
2019-06-27T20:40:00.666Z,19.40
2019-06-27T20:40:33.716Z,19.40
2019-06-27T20:41:06.646Z,19.30
2019-06-27T20:41:39.567Z,19.30
2019-06-27T20:42:12.205Z,19.30
2019-06-27T20:42:45.219Z,19.30
2019-06-27T20:43:17.874Z,19.40
2019-06-27T20:43:50.799Z,19.40
2019-06-27T20:44:24.983Z,19.30
2019-06-27T20:44:57.631Z,19.30
2019-06-27T20:45:30.309Z,19.30
2019-06-27T20:46:02.969Z,19.30
2019-06-27T20:46:35.602Z,19.20
2019-06-27T20:47:08.259Z,19.20
2019-06-27T20:47:40.907Z,19.10
2019-06-27T20:48:13.547Z,19.10
2019-06-27T20:48:46.516Z,19.20
2019-06-27T20:49:19.159Z,19.20
2019-06-27T20:49:52.453Z,19.20
2019-06-27T20:50:25.092Z,19.20
2019-06-27T20:50:57.781Z,19.10
2019-06-27T20:51:30.403Z,19.10
2019-06-27T20:52:03.053Z,19.10
2019-06-27T20:52:35.670Z,19.10
2019-06-27T20:53:08.603Z,19.10
2019-06-27T20:53:41.238Z,19.10
2019-06-27T20:54:14.191Z,19.20
2019-06-27T20:54:46.831Z,19.10
2019-06-27T20:55:20.066Z,19.10
2019-06-27T20:55:52.702Z,19.10
2019-06-27T20:56:25.688Z,19.00
2019-06-27T20:56:58.629Z,19.00
2019-06-27T20:57:31.298Z,19.00
2019-06-27T20:58:03.893Z,18.90
2019-06-27T20:58:36.536Z,18.90
2019-06-27T20:59:09.519Z,18.90
2019-06-27T20:59:42.158Z,18.90
2019-06-27T21:00:14.953Z,18.90
2019-06-27T21:00:47.595Z,18.90
2019-06-27T21:01:20.224Z,18.90
2019-06-27T21:01:53.073Z,18.90
2019-06-27T21:02:25.840Z,18.80
2019-06-27T21:02:58.778Z,18.80
2019-06-27T21:03:31.413Z,18.80
2019-06-27T21:04:04.415Z,18.80
2019-06-27T21:04:37.839Z,18.80
2019-06-27T21:05:10.888Z,18.80
2019-06-27T21:05:43.864Z,18.80
2019-06-27T21:06:16.546Z,18.80
2019-06-27T21:06:49.187Z,18.80
2019-06-27T21:07:21.884Z,18.90
2019-06-27T21:07:54.527Z,18.90
2019-06-27T21:08:27.198Z,18.90
2019-06-27T21:08:59.830Z,19.00
2019-06-27T21:09:32.475Z,19.00
2019-06-27T21:10:05.919Z,19.00
2019-06-27T21:10:38.591Z,19.10
2019-06-27T21:11:11.536Z,19.00
2019-06-27T21:11:44.336Z,19.00
2019-06-27T21:12:17.276Z,19.00
2019-06-27T21:12:49.967Z,18.90
2019-06-27T21:13:22.595Z,19.00
2019-06-27T21:13:55.307Z,19.00
2019-06-27T21:14:27.887Z,19.00
2019-06-27T21:15:00.539Z,19.00
2019-06-27T21:15:33.184Z,19.00
2019-06-27T21:16:06.523Z,19.00
2019-06-27T21:16:39.166Z,19.00
2019-06-27T21:17:11.805Z,19.00
2019-06-27T21:17:44.842Z,19.00
2019-06-27T21:18:18.281Z,19.10
2019-06-27T21:18:51.589Z,19.10
2019-06-27T21:19:24.583Z,19.00
2019-06-27T21:19:57.237Z,19.00
2019-06-27T21:20:29.895Z,19.00
2019-06-27T21:21:02.618Z,19.00
2019-06-27T21:21:35.689Z,18.90
2019-06-27T21:22:08.630Z,18.90
2019-06-27T21:22:41.269Z,18.80
2019-06-27T21:23:14.069Z,18.70
2019-06-27T21:23:47.032Z,18.80
2019-06-27T21:24:19.701Z,18.70
2019-06-27T21:24:52.372Z,18.70
2019-06-27T21:25:25.024Z,18.70
2019-06-27T21:25:57.634Z,18.70
2019-06-27T21:26:30.276Z,18.70
2019-06-27T21:27:03.241Z,18.70
2019-06-27T21:27:35.952Z,18.70
2019-06-27T21:28:08.982Z,18.70
2019-06-27T21:28:41.630Z,18.70
2019-06-27T21:29:16.988Z,18.70
2019-06-27T21:29:49.479Z,18.70
2019-06-27T21:30:22.804Z,18.70
2019-06-27T21:30:55.457Z,18.70
2019-06-27T21:31:28.100Z,18.70
2019-06-27T21:32:00.748Z,18.60
2019-06-27T21:32:33.691Z,18.60
2019-06-27T21:33:06.358Z,18.50
2019-06-27T21:33:39.027Z,18.50
2019-06-27T21:34:11.660Z,18.40
2019-06-27T21:34:44.660Z,18.40
2019-06-27T21:35:17.306Z,18.40
2019-06-27T21:35:49.946Z,18.40
2019-06-27T21:36:22.576Z,18.40
2019-06-27T21:36:55.196Z,18.30
2019-06-27T21:37:28.029Z,18.40
2019-06-27T21:38:00.763Z,18.30
2019-06-27T21:38:33.695Z,18.40
2019-06-27T21:39:07.903Z,18.40
2019-06-27T21:39:41.223Z,18.40
2019-06-27T21:40:15.888Z,18.40
2019-06-27T21:40:49.132Z,18.30
2019-06-27T21:41:22.078Z,18.30
2019-06-27T21:41:54.732Z,18.30
2019-06-27T21:42:28.038Z,18.20
2019-06-27T21:43:00.967Z,18.10
2019-06-27T21:43:33.638Z,18.10
2019-06-27T21:44:06.324Z,18.10
2019-06-27T21:44:38.986Z,18.20
2019-06-27T21:45:11.910Z,18.20
2019-06-27T21:45:44.584Z,18.20
2019-06-27T21:46:17.243Z,18.20
2019-06-27T21:46:49.888Z,18.20
2019-06-27T21:47:22.537Z,18.20
2019-06-27T21:47:55.484Z,18.20
2019-06-27T21:48:28.483Z,18.20
2019-06-27T21:49:01.447Z,18.20
2019-06-27T21:49:34.370Z,18.20
2019-06-27T21:50:07.673Z,18.30
2019-06-27T21:50:40.328Z,18.20
2019-06-27T21:51:13.272Z,18.20
2019-06-27T21:51:46.228Z,18.20
2019-06-27T21:52:18.883Z,18.20
2019-06-27T21:52:51.539Z,18.20
2019-06-27T21:53:24.156Z,18.10
2019-06-27T21:53:56.795Z,18.10
2019-06-27T21:54:29.454Z,18.00
2019-06-27T21:55:02.099Z,18.00
2019-06-27T21:55:35.194Z,18.00
2019-06-27T21:56:07.790Z,17.90
2019-06-27T21:56:40.774Z,17.90
2019-06-27T21:57:13.771Z,17.80
2019-06-27T21:57:46.699Z,17.80
2019-06-27T21:58:19.415Z,17.80
2019-06-27T21:58:52.084Z,17.70
2019-06-27T21:59:24.753Z,17.70
2019-06-27T21:59:57.759Z,17.60
2019-06-27T22:00:34.956Z,17.50
2019-06-27T22:01:07.814Z,17.50
2019-06-27T22:01:40.465Z,17.50
2019-06-27T22:02:13.642Z,17.50
2019-06-27T22:02:46.277Z,17.50
2019-06-27T22:03:19.055Z,17.50
2019-06-27T22:03:52.138Z,17.50
2019-06-27T22:04:24.779Z,17.50
2019-06-27T22:04:57.447Z,17.50
2019-06-27T22:05:30.248Z,17.50
2019-06-27T22:06:03.075Z,17.50
2019-06-27T22:06:36.385Z,17.50
2019-06-27T22:07:09.427Z,17.50
2019-06-27T22:07:42.082Z,17.50
2019-06-27T22:08:14.729Z,17.50
2019-06-27T22:08:47.351Z,17.50
2019-06-27T22:09:24.995Z,17.60
2019-06-27T22:09:54.958Z,17.60
2019-06-27T22:10:27.589Z,17.70
2019-06-27T22:11:00.580Z,17.70
2019-06-27T22:11:33.210Z,17.70
2019-06-27T22:12:05.958Z,17.70
2019-06-27T22:12:38.691Z,17.80
2019-06-27T22:13:11.354Z,17.90
2019-06-27T22:13:44.016Z,17.90
2019-06-27T22:14:17.191Z,17.90
2019-06-27T22:14:50.150Z,17.90
2019-06-27T22:15:22.793Z,17.90
2019-06-27T22:15:55.795Z,18.00
2019-06-27T22:16:28.712Z,18.00
2019-06-27T22:17:01.352Z,18.00
2019-06-27T22:17:34.001Z,18.00
2019-06-27T22:18:06.986Z,18.10
2019-06-27T22:18:39.640Z,18.10
2019-06-27T22:19:12.292Z,18.10
2019-06-27T22:19:44.945Z,18.20
2019-06-27T22:20:18.392Z,18.20
2019-06-27T22:20:51.949Z,18.20
2019-06-27T22:21:24.601Z,18.20
2019-06-27T22:21:57.255Z,18.20
2019-06-27T22:22:30.195Z,18.20
2019-06-27T22:23:03.020Z,18.10
2019-06-27T22:23:35.853Z,18.10
2019-06-27T22:24:08.527Z,18.20
2019-06-27T22:24:41.167Z,18.20
2019-06-27T22:25:14.180Z,18.10
2019-06-27T22:25:47.467Z,18.10
2019-06-27T22:26:20.115Z,18.10
2019-06-27T22:26:53.064Z,18.10
2019-06-27T22:27:25.684Z,18.10
2019-06-27T22:27:58.327Z,18.10
2019-06-27T22:28:31.172Z,18.20
2019-06-27T22:29:03.970Z,18.20
2019-06-27T22:29:37.154Z,18.20
2019-06-27T22:30:10.294Z,18.30
2019-06-27T22:30:43.304Z,18.30
2019-06-27T22:31:15.959Z,18.40
2019-06-27T22:31:48.586Z,18.40
2019-06-27T22:32:21.607Z,18.40
2019-06-27T22:32:54.250Z,18.40
2019-06-27T22:33:26.899Z,18.40
2019-06-27T22:33:59.535Z,18.30
2019-06-27T22:34:32.167Z,18.30
2019-06-27T22:35:05.046Z,18.30
2019-06-27T22:35:37.688Z,18.20
2019-06-27T22:36:11.280Z,18.20
2019-06-27T22:36:43.904Z,18.20
2019-06-27T22:37:23.575Z,18.20
2019-06-27T22:38:14.747Z,18.20
2019-06-27T22:39:05.759Z,18.20
2019-06-27T22:39:56.842Z,18.20
2019-06-27T22:40:48.030Z,18.20
2019-06-27T22:41:38.754Z,18.20
2019-06-27T22:42:29.798Z,18.20
2019-06-27T22:43:20.926Z,18.20
2019-06-27T22:44:12.283Z,18.20
2019-06-27T22:45:03.280Z,18.20
2019-06-27T22:45:54.562Z,18.10
2019-06-27T22:46:45.487Z,18.00
2019-06-27T22:47:37.787Z,18.00
2019-06-27T22:48:14.650Z,18.00
2019-06-27T22:48:50.806Z,17.90
2019-06-27T22:49:24.555Z,17.90
2019-06-27T22:49:58.070Z,17.90
2019-06-27T22:50:51.312Z,17.90
2019-06-27T22:51:34.802Z,17.90
2019-06-27T22:52:26.980Z,17.90
2019-06-27T22:53:13.113Z,17.80
2019-06-27T22:53:57.398Z,17.80
2019-06-27T22:54:30.589Z,17.80
2019-06-27T22:55:04.771Z,17.80
2019-06-27T22:55:39.600Z,17.70
2019-06-27T22:56:13.005Z,17.70
2019-06-27T22:56:47.475Z,17.70
2019-06-27T22:57:22.359Z,17.60
2019-06-27T22:57:58.792Z,17.60
2019-06-27T22:58:33.749Z,17.60
2019-06-27T22:59:08.352Z,17.50
2019-06-27T22:59:46.926Z,17.50
2019-06-27T23:00:22.310Z,17.50
2019-06-27T23:00:57.754Z,17.50
2019-06-27T23:01:31.845Z,17.40
2019-06-27T23:02:06.006Z,17.40
2019-06-27T23:02:40.328Z,17.30
2019-06-27T23:03:14.967Z,17.30
2019-06-27T23:03:49.880Z,17.20
2019-06-27T23:04:24.113Z,17.20
2019-06-27T23:04:57.162Z,17.20
2019-06-27T23:05:32.109Z,17.10
2019-06-27T23:06:07.200Z,17.10
2019-06-27T23:06:41.398Z,17.10
2019-06-27T23:07:17.351Z,17.00
2019-06-27T23:07:53.876Z,17.00
2019-06-27T23:08:28.425Z,17.00
2019-06-27T23:09:05.072Z,16.90
2019-06-27T23:09:55.909Z,16.90
2019-06-27T23:10:23.094Z,16.90
2019-06-27T23:10:57.604Z,16.90
2019-06-27T23:11:30.388Z,16.90
2019-06-27T23:12:03.051Z,16.90
2019-06-27T23:12:35.753Z,17.00
2019-06-27T23:13:08.410Z,17.00